Time;durP1;ratioP1;P1;durP2;ratioP2;P2;SDS_P1;SDS_P2;PMS_P1;PMS_P2;Temp;Humidity;BMP_temperature;BMP_pressure;BME280_temperature;BME280_humidity;BME280_pressure;Samples;Min_cycle;Max_cycle;Signal;HPM_P1;HPM_P2
2021/03/02 00:01:04;;;;;;;7.63;6.90;;;3.90;99.90;;;;;;5028726;28;20649;-88
2021/03/02 00:03:32;;;;;;;11.60;7.20;;;3.90;99.90;;;;;;5042446;28;20658;-87
2021/03/02 00:05:59;;;;;;;7.60;6.03;;;3.90;99.90;;;;;;5053190;28;20645;-88
2021/03/02 00:08:28;;;;;;;9.63;5.83;;;3.80;99.90;;;;;;5039694;28;20721;-87
2021/03/02 00:10:55;;;;;;;10.10;6.43;;;3.90;99.90;;;;;;5041562;28;21185;-88
2021/03/02 00:13:23;;;;;;;7.83;6.80;;;3.80;99.90;;;;;;5049052;28;20996;-88
2021/03/02 00:15:49;;;;;;;7.37;6.67;;;3.80;99.90;;;;;;5039604;28;20774;-89
2021/03/02 00:18:19;;;;;;;9.07;6.90;;;3.70;99.90;;;;;;5042765;28;20626;-89
2021/03/02 00:20:48;;;;;;;9.03;8.13;;;3.60;99.90;;;;;;5043436;28;20697;-89
2021/03/02 00:23:22;;;;;;;10.03;9.03;;;3.60;99.90;;;;;;5037671;28;20659;-89
2021/03/02 00:25:54;;;;;;;11.90;10.10;;;3.60;99.90;;;;;;5041607;28;20653;-88
2021/03/02 00:28:22;;;;;;;11.90;10.60;;;3.50;99.90;;;;;;5039438;28;20657;-88
2021/03/02 00:30:49;;;;;;;14.50;11.73;;;3.60;99.90;;;;;;5043874;28;20671;-88
2021/03/02 00:33:16;;;;;;;12.70;11.40;;;3.50;99.90;;;;;;5040297;28;20618;-88
2021/03/02 00:35:43;;;;;;;13.77;11.70;;;3.50;99.90;;;;;;5036869;28;20630;-88
2021/03/02 00:38:09;;;;;;;13.70;11.57;;;3.50;99.90;;;;;;5048351;28;20640;-88
2021/03/02 00:40:36;;;;;;;14.07;12.43;;;3.40;99.90;;;;;;5042317;28;21209;-88
2021/03/02 00:43:04;;;;;;;12.40;11.27;;;3.40;99.90;;;;;;5049913;28;20633;-88
2021/03/02 00:45:31;;;;;;;13.07;11.80;;;3.40;99.90;;;;;;5032075;28;20660;-87
2021/03/02 00:47:57;;;;;;;12.57;11.23;;;3.40;99.90;;;;;;5041611;28;21173;-88
2021/03/02 00:50:25;;;;;;;12.57;11.27;;;3.40;99.90;;;;;;5045780;28;20653;-88
2021/03/02 00:52:52;;;;;;;14.13;10.40;;;3.40;99.90;;;;;;5050101;28;20668;-88
2021/03/02 00:55:18;;;;;;;11.47;10.27;;;3.40;99.90;;;;;;5046698;28;21237;-87
2021/03/02 00:57:44;;;;;;;12.67;11.37;;;3.30;99.90;;;;;;5046387;28;20679;-88
2021/03/02 01:00:13;;;;;;;15.30;10.80;;;3.30;99.90;;;;;;5048500;28;20634;-87
2021/03/02 01:02:39;;;;;;;10.90;9.80;;;3.30;99.90;;;;;;5043599;28;20610;-88
2021/03/02 01:05:07;;;;;;;12.20;11.00;;;3.30;99.90;;;;;;5045366;28;20666;-88
2021/03/02 01:07:35;;;;;;;11.53;9.47;;;3.30;99.90;;;;;;5047009;28;20635;-88
2021/03/02 01:10:01;;;;;;;11.23;9.37;;;3.30;99.90;;;;;;5021829;28;21209;-88
2021/03/02 01:12:29;;;;;;;10.13;9.13;;;3.20;99.90;;;;;;5047858;28;20671;-88
2021/03/02 01:14:56;;;;;;;11.80;10.70;;;3.20;99.90;;;;;;5042590;28;20655;-87
2021/03/02 01:17:24;;;;;;;12.40;10.07;;;3.20;99.90;;;;;;5046659;28;20630;-87
2021/03/02 01:19:50;;;;;;;11.33;10.23;;;3.10;99.90;;;;;;5049102;28;20641;-88
2021/03/02 01:22:17;;;;;;;10.83;9.80;;;3.10;99.90;;;;;;5042476;28;20651;-88
2021/03/02 01:24:43;;;;;;;11.87;9.53;;;3.00;99.90;;;;;;5046300;28;20674;-88
2021/03/02 01:27:09;;;;;;;11.57;10.37;;;3.00;99.90;;;;;;5045776;28;20629;-88
2021/03/02 01:29:36;;;;;;;12.17;11.07;;;3.00;99.90;;;;;;5044319;28;20607;-88
2021/03/02 01:32:03;;;;;;;11.03;10.00;;;3.10;99.90;;;;;;5024061;28;20652;-88
2021/03/02 01:34:30;;;;;;;12.03;9.70;;;3.00;99.90;;;;;;5025167;28;20673;-88
2021/03/02 01:36:56;;;;;;;14.53;11.80;;;2.90;99.90;;;;;;5043815;28;20630;-88
2021/03/02 01:39:25;;;;;;;11.30;10.30;;;2.70;99.90;;;;;;5046797;28;20656;-87
2021/03/02 01:41:52;;;;;;;11.57;10.33;;;2.70;99.90;;;;;;5043224;28;21184;-87
2021/03/02 01:44:18;;;;;;;10.70;9.70;;;2.70;99.90;;;;;;5040708;28;20684;-88
2021/03/02 01:46:46;;;;;;;11.43;10.23;;;2.80;99.90;;;;;;5034706;28;20633;-88
2021/03/02 01:49:13;;;;;;;11.23;10.03;;;2.80;99.90;;;;;;5038863;28;20745;-87
2021/03/02 01:51:40;;;;;;;11.10;10.00;;;2.70;99.90;;;;;;5030072;28;20694;-86
2021/03/02 01:54:07;;;;;;;12.97;11.67;;;2.60;99.90;;;;;;5049785;28;21266;-88
2021/03/02 01:56:36;;;;;;;13.47;11.27;;;2.50;99.90;;;;;;5029366;28;20623;-88
2021/03/02 01:59:04;;;;;;;11.70;10.60;;;2.50;99.90;;;;;;5041664;28;20646;-88
2021/03/02 02:01:31;;;;;;;12.00;10.83;;;2.50;99.90;;;;;;5023305;28;20618;-88
2021/03/02 02:04:03;;;;;;;12.67;11.40;;;2.50;99.90;;;;;;5045598;28;20678;-89
2021/03/02 02:06:38;;;;;;;12.80;11.50;;;2.50;99.90;;;;;;5039964;28;20642;-87
2021/03/02 02:09:12;;;;;;;13.43;11.20;;;2.50;99.90;;;;;;5050963;28;20654;-88
2021/03/02 02:11:47;;;;;;;13.50;10.50;;;2.50;99.90;;;;;;5041099;28;20614;-88
2021/03/02 02:14:21;;;;;;;14.30;12.63;;;2.40;99.90;;;;;;5046742;28;20686;-86
2021/03/02 02:16:51;;;;;;;11.97;10.83;;;2.30;99.90;;;;;;5044369;28;20639;-89
2021/03/02 02:19:41;;;;;;;15.60;11.90;;;2.40;99.90;;;;;;5052022;28;20679;-87
2021/03/02 02:22:30;;;;;;;14.17;11.23;;;2.30;99.90;;;;;;5048736;28;20648;-87
2021/03/02 02:25:09;;;;;;;12.90;11.60;;;2.30;99.90;;;;;;5044822;28;20684;-87
2021/03/02 02:27:41;;;;;;;13.73;12.33;;;2.20;99.90;;;;;;5043707;28;20609;-87
2021/03/02 02:30:11;;;;;;;14.50;11.83;;;2.20;99.90;;;;;;5049412;28;20636;-87
2021/03/02 02:32:39;;;;;;;14.60;13.00;;;2.20;99.90;;;;;;5048276;28;20654;-88
2021/03/02 02:35:07;;;;;;;16.87;13.27;;;2.20;99.90;;;;;;5044528;28;21523;-88
2021/03/02 02:37:35;;;;;;;16.67;13.20;;;2.30;99.90;;;;;;5041595;28;20666;-87
2021/03/02 02:40:04;;;;;;;16.50;14.70;;;2.20;99.90;;;;;;5051539;28;20631;-88
2021/03/02 02:42:32;;;;;;;14.90;13.27;;;2.30;99.90;;;;;;5058660;28;20626;-88
2021/03/02 02:45:02;;;;;;;14.90;13.50;;;2.20;99.90;;;;;;5046277;28;20674;-88
2021/03/02 02:47:30;;;;;;;14.77;13.27;;;2.20;99.90;;;;;;5048834;28;20638;-88
2021/03/02 02:49:56;;;;;;;14.80;13.20;;;2.10;99.90;;;;;;5051189;28;20634;-88
2021/03/02 02:52:23;;;;;;;16.63;14.90;;;2.10;99.90;;;;;;5053443;28;20633;-88
2021/03/02 02:54:50;;;;;;;18.13;13.30;;;2.10;99.90;;;;;;5051891;28;20646;-87
2021/03/02 02:57:18;;;;;;;15.10;13.50;;;2.20;99.90;;;;;;5041317;28;20611;-87
2021/03/02 02:59:47;;;;;;;19.93;14.50;;;2.10;99.90;;;;;;5044151;28;20638;-89
2021/03/02 03:02:20;;;;;;;14.83;13.33;;;2.00;99.90;;;;;;5049542;28;20606;-87
2021/03/02 03:04:50;;;;;;;14.57;13.10;;;2.00;99.90;;;;;;5052820;28;20770;-87
2021/03/02 03:07:20;;;;;;;15.80;13.40;;;2.00;99.90;;;;;;5052505;28;20618;-86
2021/03/02 03:09:46;;;;;;;15.47;13.70;;;2.00;99.90;;;;;;5051320;28;20650;-87
2021/03/02 03:12:15;;;;;;;16.83;14.83;;;1.90;99.90;;;;;;5055427;28;20625;-88
2021/03/02 03:14:48;;;;;;;16.13;13.00;;;1.80;99.90;;;;;;5052291;28;20642;-87
2021/03/02 03:17:17;;;;;;;14.93;13.43;;;1.80;99.90;;;;;;5054070;28;21027;-87
2021/03/02 03:19:45;;;;;;;14.83;13.43;;;1.80;99.90;;;;;;5045717;28;20994;-87
2021/03/02 03:22:12;;;;;;;15.07;13.33;;;1.70;99.90;;;;;;5046327;28;20634;-87
2021/03/02 03:24:40;;;;;;;16.50;14.80;;;1.80;99.90;;;;;;5052433;28;21029;-87
2021/03/02 03:27:06;;;;;;;15.97;14.40;;;1.70;99.90;;;;;;5045439;28;20661;-86
2021/03/02 03:29:35;;;;;;;15.07;13.43;;;1.70;99.90;;;;;;5050965;28;20621;-87
2021/03/02 03:32:04;;;;;;;15.17;13.67;;;1.60;99.90;;;;;;5042067;28;20630;-87
2021/03/02 03:34:33;;;;;;;14.00;12.70;;;1.70;99.90;;;;;;5047358;28;20666;-87
2021/03/02 03:37:00;;;;;;;15.90;14.40;;;1.70;99.90;;;;;;5040938;28;21194;-87
2021/03/02 03:39:26;;;;;;;14.70;13.10;;;1.60;99.90;;;;;;5046084;28;20623;-87
2021/03/02 03:41:53;;;;;;;15.53;12.50;;;1.70;99.90;;;;;;5044189;28;21202;-88
2021/03/02 03:44:21;;;;;;;15.00;13.50;;;1.80;99.90;;;;;;5044939;28;20684;-88
2021/03/02 03:46:48;;;;;;;14.93;12.47;;;1.60;99.90;;;;;;5048353;28;20639;-88
2021/03/02 03:49:15;;;;;;;14.97;13.53;;;1.50;99.90;;;;;;5047940;28;20635;-87
2021/03/02 03:51:43;;;;;;;14.50;13.17;;;1.50;99.90;;;;;;5048271;28;20672;-87
2021/03/02 03:54:11;;;;;;;15.67;14.17;;;1.40;99.90;;;;;;5049444;28;20650;-88
2021/03/02 03:56:39;;;;;;;14.60;13.10;;;1.50;99.90;;;;;;5047982;28;20706;-86
2021/03/02 03:59:06;;;;;;;17.03;15.43;;;1.40;99.90;;;;;;5046917;28;20609;-87
2021/03/02 04:01:36;;;;;;;17.03;14.40;;;1.40;99.90;;;;;;5042457;28;20607;-87
2021/03/02 04:04:02;;;;;;;16.00;14.50;;;1.60;99.90;;;;;;5046387;28;20685;-88
2021/03/02 04:06:34;;;;;;;17.03;15.37;;;1.50;99.90;;;;;;5046669;28;20637;-87
2021/03/02 04:09:04;;;;;;;16.30;14.70;;;1.40;99.90;;;;;;5049170;28;20683;-87
2021/03/02 04:11:34;;;;;;;16.93;15.33;;;1.40;99.90;;;;;;5031629;28;20659;-88
2021/03/02 04:14:00;;;;;;;19.30;14.90;;;1.30;99.90;;;;;;5049913;28;20645;-88
2021/03/02 04:16:26;;;;;;;16.40;14.73;;;1.30;99.90;;;;;;5045053;28;20617;-88
2021/03/02 04:18:53;;;;;;;17.60;15.80;;;1.40;99.90;;;;;;5050410;28;21009;-87
2021/03/02 04:21:20;;;;;;;16.73;14.87;;;1.40;99.90;;;;;;5050208;28;20633;-87
2021/03/02 04:23:47;;;;;;;17.33;15.60;;;1.20;99.90;;;;;;5051883;28;20681;-88
2021/03/02 04:26:14;;;;;;;17.47;15.80;;;1.20;99.90;;;;;;5051653;28;20639;-87
2021/03/02 04:28:42;;;;;;;17.70;15.83;;;1.20;99.90;;;;;;5054141;28;20682;-87
2021/03/02 04:31:09;;;;;;;17.13;15.30;;;1.10;99.90;;;;;;5053366;28;20662;-87
2021/03/02 04:33:35;;;;;;;18.27;15.63;;;1.10;99.90;;;;;;5053427;28;20673;-87
2021/03/02 04:36:06;;;;;;;17.30;14.63;;;1.10;99.90;;;;;;5051551;28;20629;-87
2021/03/02 04:38:33;;;;;;;16.37;14.77;;;1.20;99.90;;;;;;5068546;28;20614;-87
2021/03/02 04:40:59;;;;;;;15.77;13.90;;;1.20;99.90;;;;;;5069565;28;21056;-87
2021/03/02 04:43:26;;;;;;;15.57;14.10;;;1.20;99.90;;;;;;5066320;28;20680;-88
2021/03/02 04:45:53;;;;;;;21.17;16.00;;;1.10;99.90;;;;;;5068019;28;20615;-87
2021/03/02 04:48:19;;;;;;;19.13;17.10;;;1.00;99.90;;;;;;5063810;28;20625;-87
2021/03/02 04:50:46;;;;;;;17.53;15.77;;;1.00;99.90;;;;;;5063840;28;20645;-87
2021/03/02 04:53:13;;;;;;;18.50;16.70;;;0.90;99.90;;;;;;5062311;28;20727;-87
2021/03/02 04:55:39;;;;;;;18.97;17.07;;;1.00;99.90;;;;;;5054279;28;20625;-88
2021/03/02 04:58:06;;;;;;;19.30;17.00;;;1.10;99.90;;;;;;5047960;28;20931;-89
2021/03/02 05:00:33;;;;;;;19.10;17.10;;;1.00;99.90;;;;;;5052644;28;20629;-87
2021/03/02 05:02:59;;;;;;;16.67;14.97;;;1.00;99.90;;;;;;5047361;28;20653;-88
2021/03/02 05:05:26;;;;;;;16.70;15.03;;;1.00;99.90;;;;;;5047766;28;20661;-87
2021/03/02 05:07:53;;;;;;;16.90;15.10;;;1.00;99.90;;;;;;5045542;28;21111;-88
2021/03/02 05:10:20;;;;;;;17.60;15.90;;;1.10;99.90;;;;;;5041737;28;20697;-88
2021/03/02 05:12:46;;;;;;;17.37;15.53;;;1.10;99.90;;;;;;5047882;28;20626;-89
2021/03/02 05:15:13;;;;;;;16.97;15.33;;;1.10;99.90;;;;;;5041024;28;20610;-87
2021/03/02 05:17:40;;;;;;;17.27;15.27;;;1.10;99.90;;;;;;5035462;28;21148;-87
2021/03/02 05:20:08;;;;;;;17.10;15.30;;;1.00;99.90;;;;;;5044935;28;21180;-88
2021/03/02 05:22:34;;;;;;;20.10;15.70;;;1.00;99.90;;;;;;5044215;28;21016;-88
2021/03/02 05:25:00;;;;;;;16.43;14.70;;;0.90;99.90;;;;;;5047638;28;20660;-88
2021/03/02 05:27:26;;;;;;;17.50;15.07;;;1.00;99.90;;;;;;5039356;28;20618;-87
2021/03/02 05:29:54;;;;;;;16.37;14.83;;;1.00;99.90;;;;;;5041469;28;20615;-87
2021/03/02 05:32:20;;;;;;;18.33;15.23;;;1.00;99.90;;;;;;5038585;28;20688;-87
2021/03/02 05:34:47;;;;;;;15.30;13.70;;;0.90;99.90;;;;;;5027576;28;20654;-88
2021/03/02 05:37:14;;;;;;;15.80;14.30;;;0.90;99.90;;;;;;5046903;28;20634;-88
2021/03/02 05:39:40;;;;;;;15.80;14.10;;;0.70;99.90;;;;;;5046470;28;20633;-88
2021/03/02 05:42:07;;;;;;;17.03;14.57;;;0.70;99.90;;;;;;5045944;28;20714;-88
2021/03/02 05:44:34;;;;;;;16.77;14.70;;;0.70;99.90;;;;;;5040191;28;20673;-89
2021/03/02 05:47:01;;;;;;;18.10;15.33;;;0.70;99.90;;;;;;5042565;28;20636;-88
2021/03/02 05:49:28;;;;;;;15.90;13.37;;;0.60;99.90;;;;;;5038457;28;20662;-88
2021/03/02 05:51:59;;;;;;;16.10;13.80;;;0.60;99.90;;;;;;5044233;28;20635;-88
2021/03/02 05:54:26;;;;;;;15.00;13.50;;;0.60;99.90;;;;;;5048564;28;20623;-88
2021/03/02 05:56:53;;;;;;;17.57;15.77;;;0.60;99.90;;;;;;5048832;28;20626;-86
2021/03/02 05:59:23;;;;;;;16.97;15.17;;;0.60;99.90;;;;;;5049864;28;20657;-87
2021/03/02 06:01:52;;;;;;;19.43;15.30;;;0.60;99.90;;;;;;5046903;28;21421;-89
2021/03/02 06:04:21;;;;;;;17.60;15.43;;;0.70;99.90;;;;;;5048540;28;21196;-89
2021/03/02 06:06:48;;;;;;;16.80;15.10;;;0.70;99.90;;;;;;5056404;28;20678;-89
2021/03/02 06:09:18;;;;;;;15.93;14.33;;;0.60;99.90;;;;;;5051116;28;20749;-88
2021/03/02 06:11:45;;;;;;;16.63;14.33;;;0.50;99.90;;;;;;5043229;28;20989;-88
2021/03/02 06:14:22;;;;;;;22.57;15.47;;;0.50;99.90;;;;;;5056195;28;20625;-92
2021/03/02 06:16:50;;;;;;;16.70;14.90;;;0.50;99.90;;;;;;5050932;28;21105;-90
2021/03/02 06:19:16;;;;;;;19.77;15.97;;;0.60;99.90;;;;;;5055995;28;20654;-90
2021/03/02 06:21:44;;;;;;;17.53;14.80;;;0.60;99.90;;;;;;5059992;28;20793;-90
2021/03/02 06:24:14;;;;;;;15.80;14.17;;;0.60;99.90;;;;;;5063388;28;20653;-88
2021/03/02 06:26:43;;;;;;;17.33;15.00;;;0.50;99.90;;;;;;5050303;28;21144;-90
2021/03/02 06:29:15;;;;;;;16.93;15.00;;;0.50;99.90;;;;;;5050820;28;20709;-90
2021/03/02 06:31:43;;;;;;;16.90;15.17;;;0.60;99.90;;;;;;5027570;28;21036;-90
2021/03/02 06:34:12;;;;;;;18.17;16.37;;;0.80;99.90;;;;;;5049089;28;20620;-90
2021/03/02 06:36:40;;;;;;;16.37;14.73;;;0.70;99.90;;;;;;5045450;28;20685;-90
2021/03/02 06:39:26;;;;;;;17.90;15.00;;;0.80;99.90;;;;;;5049997;28;20598;-89
2021/03/02 06:42:09;;;;;;;18.73;14.93;;;0.80;99.90;;;;;;5028892;28;21011;-92
2021/03/02 06:44:36;;;;;;;18.07;13.73;;;0.80;99.90;;;;;;5044994;28;20661;-92
2021/03/02 06:47:11;;;;;;;17.20;15.40;;;0.80;99.90;;;;;;5049926;28;20610;-92
2021/03/02 06:49:39;;;;;;;17.37;15.63;;;0.90;99.90;;;;;;5030440;28;20691;-93
2021/03/02 06:52:14;;;;;;;17.93;14.43;;;1.00;99.90;;;;;;5046587;28;20641;-91
2021/03/02 06:54:41;;;;;;;20.43;14.67;;;1.00;99.90;;;;;;5037207;28;20673;-92
2021/03/02 06:57:08;;;;;;;23.20;15.90;;;1.00;99.90;;;;;;5054832;28;20626;-93
2021/03/02 06:59:35;;;;;;;21.23;15.80;;;1.10;99.90;;;;;;5050982;28;20698;-92
2021/03/02 07:02:02;;;;;;;18.20;16.20;;;1.30;99.90;;;;;;5051961;28;20626;-92
2021/03/02 07:04:30;;;;;;;17.70;16.00;;;1.40;99.90;;;;;;5046193;28;21068;-93
2021/03/02 07:06:58;;;;;;;18.67;16.57;;;1.60;99.90;;;;;;5063435;28;20654;-91
2021/03/02 07:09:25;;;;;;;19.23;17.03;;;1.60;99.90;;;;;;5045050;28;20662;-93
2021/03/02 07:11:57;;;;;;;22.90;16.37;;;1.70;99.90;;;;;;5053018;28;20638;-90
2021/03/02 07:14:26;;;;;;;18.07;14.50;;;1.80;99.90;;;;;;5044614;28;20672;-90
2021/03/02 07:16:54;;;;;;;19.87;16.77;;;1.80;99.90;;;;;;5034530;28;20694;-90
2021/03/02 07:19:21;;;;;;;18.03;16.20;;;1.90;99.90;;;;;;5049179;28;21016;-90
2021/03/02 07:21:50;;;;;;;18.33;15.60;;;1.90;99.90;;;;;;5053399;28;20618;-90
2021/03/02 07:24:18;;;;;;;17.67;15.40;;;1.90;99.90;;;;;;5045281;28;20780;-89
2021/03/02 07:26:48;;;;;;;17.80;15.27;;;2.00;99.90;;;;;;5051497;28;20636;-91
2021/03/02 07:29:16;;;;;;;16.40;14.70;;;2.10;99.90;;;;;;5053120;28;20747;-90
2021/03/02 07:31:51;;;;;;;17.07;15.27;;;2.20;99.90;;;;;;5054160;28;20657;-92
2021/03/02 07:34:19;;;;;;;26.60;17.10;;;2.40;99.90;;;;;;5034600;28;20626;-92
2021/03/02 07:36:46;;;;;;;17.57;15.70;;;2.50;99.90;;;;;;5042460;28;20641;-92
2021/03/02 07:39:18;;;;;;;19.10;16.87;;;2.70;99.90;;;;;;5048404;28;20670;-91
2021/03/02 07:41:46;;;;;;;20.10;16.47;;;2.80;99.90;;;;;;5056473;28;20635;-91
2021/03/02 07:44:16;;;;;;;18.40;16.50;;;3.00;99.90;;;;;;5054103;28;20704;-91
2021/03/02 07:46:56;;;;;;;18.80;16.90;;;3.10;99.90;;;;;;5062134;28;20630;-91
2021/03/02 07:49:36;;;;;;;19.10;17.10;;;3.30;99.90;;;;;;5055767;28;20628;-89
2021/03/02 07:52:20;;;;;;;18.50;16.77;;;3.40;99.90;;;;;;5064847;28;20642;-88
2021/03/02 07:54:46;;;;;;;20.90;17.87;;;3.60;99.90;;;;;;5059583;28;20648;-88
2021/03/02 07:57:27;;;;;;;19.40;17.30;;;3.80;99.90;;;;;;5053789;28;20689;-90
2021/03/02 08:00:25;;;;;;;19.00;17.03;;;4.00;99.90;;;;;;5053883;28;20665;-91
2021/03/02 08:03:30;;;;;;;20.07;17.57;;;4.10;99.90;;;;;;5050665;28;20678;-89
2021/03/02 08:06:00;;;;;;;22.07;19.97;;;4.40;99.90;;;;;;5054181;28;20644;-89
2021/03/02 08:08:42;;;;;;;22.53;20.33;;;4.50;99.90;;;;;;5051363;28;20744;-89
2021/03/02 08:11:31;;;;;;;23.87;21.47;;;4.80;99.90;;;;;;5048846;28;20641;-90
2021/03/02 08:14:15;;;;;;;23.40;21.20;;;5.00;99.90;;;;;;5048893;28;20710;-91
2021/03/02 08:16:53;;;;;;;21.57;19.40;;;5.30;99.90;;;;;;5058578;28;20619;-89
2021/03/02 08:19:38;;;;;;;22.60;20.53;;;5.50;99.90;;;;;;5050213;28;20657;-89
2021/03/02 08:22:48;;;;;;;23.70;21.20;;;5.80;99.90;;;;;;5060120;28;21065;-90
2021/03/02 08:25:27;;;;;;;21.37;19.23;;;5.90;99.90;;;;;;5055208;28;20658;-89
2021/03/02 08:27:59;;;;;;;19.83;17.77;;;6.10;99.90;;;;;;5059599;28;20610;-88
2021/03/02 08:30:29;;;;;;;20.90;17.30;;;6.20;99.90;;;;;;5062642;28;20715;-90
2021/03/02 08:32:59;;;;;;;26.13;17.23;;;6.40;99.90;;;;;;5043801;28;20655;-91
2021/03/02 08:35:30;;;;;;;20.33;16.73;;;6.40;99.90;;;;;;5061033;28;20662;-89
2021/03/02 08:37:58;;;;;;;19.17;17.20;;;6.40;99.90;;;;;;5061196;28;20639;-91
2021/03/02 08:40:41;;;;;;;17.33;15.63;;;6.50;99.90;;;;;;5030903;28;20751;-90
2021/03/02 08:43:09;;;;;;;19.10;17.30;;;6.70;99.90;;;;;;5054741;28;20964;-91
2021/03/02 08:45:39;;;;;;;19.70;17.67;;;6.80;99.90;;;;;;5054059;28;20699;-90
2021/03/02 08:48:27;;;;;;;20.03;18.03;;;7.00;99.90;;;;;;5060250;28;20735;-89
2021/03/02 08:50:55;;;;;;;21.60;18.27;;;7.00;99.90;;;;;;5067764;28;20661;-91
2021/03/02 08:53:26;;;;;;;19.03;16.37;;;7.20;99.90;;;;;;5058962;28;20988;-91
2021/03/02 08:55:56;;;;;;;22.23;18.40;;;7.20;99.90;;;;;;5048369;28;20626;-91
2021/03/02 08:58:26;;;;;;;19.43;17.43;;;7.10;99.90;;;;;;5053836;28;20680;-91
2021/03/02 09:01:00;;;;;;;19.37;17.53;;;7.20;99.90;;;;;;5049653;28;20638;-91
2021/03/02 09:03:27;;;;;;;19.70;17.70;;;7.40;99.90;;;;;;5057231;28;20672;-90
2021/03/02 09:06:23;;;;;;;20.30;18.10;;;7.50;99.90;;;;;;5063208;28;20652;-91
2021/03/02 09:09:00;;;;;;;22.73;17.77;;;7.50;99.90;;;;;;5021346;28;21084;-91
2021/03/02 09:11:31;;;;;;;27.47;18.10;;;7.70;99.90;;;;;;5059139;28;20618;-90
2021/03/02 09:14:00;;;;;;;21.40;18.40;;;7.90;99.90;;;;;;5057788;28;20574;-90
2021/03/02 09:16:41;;;;;;;19.90;17.80;;;8.00;99.90;;;;;;5059016;28;20999;-91
2021/03/02 09:19:14;;;;;;;21.07;18.97;;;7.90;99.90;;;;;;5060645;28;20656;-91
2021/03/02 09:21:43;;;;;;;18.97;17.07;;;8.20;99.90;;;;;;5060566;28;20709;-90
2021/03/02 09:24:15;;;;;;;22.37;20.10;;;8.30;99.90;;;;;;5068640;28;20673;-92
2021/03/02 09:26:48;;;;;;;18.63;16.70;;;8.30;99.90;;;;;;5058860;28;20672;-89
2021/03/02 09:29:15;;;;;;;19.10;16.97;;;8.50;99.90;;;;;;5067251;28;20661;-90
2021/03/02 09:31:43;;;;;;;20.73;18.20;;;8.60;99.90;;;;;;5041353;28;20642;-90
2021/03/02 09:34:11;;;;;;;20.07;18.03;;;8.80;99.90;;;;;;5052246;28;20615;-91
2021/03/02 09:36:38;;;;;;;23.00;18.73;;;9.20;99.90;;;;;;5055870;28;20637;-91
2021/03/02 09:39:24;;;;;;;19.33;17.40;;;9.50;99.70;;;;;;5057104;28;20648;-91
2021/03/02 09:41:54;;;;;;;19.73;17.67;;;9.70;98.90;;;;;;5051032;28;21098;-90
2021/03/02 09:44:24;;;;;;;21.90;17.40;;;9.90;98.70;;;;;;5070801;28;20661;-91
2021/03/02 09:46:52;;;;;;;19.70;16.60;;;10.00;98.00;;;;;;5057052;28;20619;-90
2021/03/02 09:49:33;;;;;;;19.47;17.13;;;10.40;97.30;;;;;;5055437;28;20705;-91
2021/03/02 09:52:04;;;;;;;23.80;17.83;;;10.60;97.30;;;;;;5059276;28;20673;-92
2021/03/02 09:54:34;;;;;;;21.53;17.10;;;10.80;96.70;;;;;;5055898;28;20691;-91
2021/03/02 09:57:04;;;;;;;18.07;16.27;;;10.80;96.50;;;;;;5055239;28;20632;-90
2021/03/02 10:02:14;;;;;;;17.30;15.50;;;11.10;95.50;;;;;;5050542;28;20611;-91
2021/03/02 10:04:41;;;;;;;20.50;17.50;;;11.30;95.70;;;;;;5047274;28;20658;-91
2021/03/02 10:07:11;;;;;;;15.90;14.30;;;11.20;95.30;;;;;;5050016;28;20634;-91
2021/03/02 10:09:47;;;;;;;18.27;16.47;;;11.50;95.20;;;;;;5046327;28;20654;-92
2021/03/02 10:12:15;;;;;;;19.47;17.00;;;11.80;94.70;;;;;;5051576;28;20629;-92
2021/03/02 10:14:44;;;;;;;17.30;15.50;;;11.60;94.40;;;;;;5050914;28;20646;-92
2021/03/02 10:17:11;;;;;;;18.80;16.00;;;12.00;94.30;;;;;;5049462;28;20738;-92
2021/03/02 10:19:38;;;;;;;16.37;14.13;;;12.20;93.60;;;;;;5050016;28;20764;-90
2021/03/02 10:22:12;;;;;;;16.03;13.97;;;12.40;93.00;;;;;;5042884;28;20635;-91
2021/03/02 10:24:52;;;;;;;15.43;13.83;;;12.50;92.60;;;;;;5057401;28;20686;-93
2021/03/02 10:27:21;;;;;;;17.73;15.37;;;12.50;92.80;;;;;;5046088;28;20997;-91
2021/03/02 10:29:50;;;;;;;16.20;13.97;;;12.70;92.30;;;;;;5054107;28;20646;-92
2021/03/02 10:32:17;;;;;;;16.00;14.30;;;12.60;91.90;;;;;;5052324;28;20712;-91
2021/03/02 10:34:45;;;;;;;16.90;13.10;;;12.80;91.80;;;;;;5051611;28;20619;-90
2021/03/02 10:37:14;;;;;;;12.90;11.57;;;12.90;91.10;;;;;;5048043;28;20630;-92
2021/03/02 10:39:43;;;;;;;14.07;12.70;;;13.10;91.10;;;;;;5051475;28;20737;-93
2021/03/02 10:42:11;;;;;;;14.83;13.43;;;13.40;90.80;;;;;;5057021;28;20709;-92
2021/03/02 10:44:38;;;;;;;15.47;14.07;;;13.80;90.30;;;;;;5053077;28;20662;-91
2021/03/02 10:47:06;;;;;;;15.10;13.60;;;13.90;90.00;;;;;;5050050;28;20677;-91
2021/03/02 10:49:32;;;;;;;14.00;11.90;;;13.90;89.20;;;;;;5046510;28;20666;-91
2021/03/02 10:52:00;;;;;;;13.67;12.27;;;14.20;88.50;;;;;;5044945;28;20626;-92
2021/03/02 10:54:26;;;;;;;18.90;13.27;;;14.40;88.20;;;;;;5042357;28;20645;-91
2021/03/02 10:56:53;;;;;;;14.90;13.50;;;14.60;87.30;;;;;;5039023;28;20618;-91
2021/03/02 10:59:21;;;;;;;15.97;11.80;;;14.30;86.50;;;;;;5042461;28;21068;-93
2021/03/02 11:01:48;;;;;;;17.23;13.70;;;14.60;87.40;;;;;;5052327;28;20613;-93
2021/03/02 11:04:16;;;;;;;15.20;13.30;;;15.00;85.20;;;;;;5049780;28;21020;-93
2021/03/02 11:06:43;;;;;;;13.50;12.13;;;15.20;84.00;;;;;;5048628;28;20639;-93
2021/03/02 11:09:12;;;;;;;13.70;11.50;;;15.50;83.70;;;;;;5045232;28;20719;-92
2021/03/02 11:11:41;;;;;;;13.80;11.33;;;15.80;83.20;;;;;;5049819;28;20630;-93
2021/03/02 11:14:10;;;;;;;13.97;12.57;;;15.90;80.60;;;;;;5049499;28;20634;-93
2021/03/02 11:16:40;;;;;;;12.73;11.40;;;15.90;81.70;;;;;;5045045;28;20622;-93
2021/03/02 11:19:07;;;;;;;16.37;11.93;;;15.80;79.10;;;;;;5044412;28;20652;-94
2021/03/02 11:21:34;;;;;;;14.57;12.10;;;16.00;77.90;;;;;;5051086;28;20639;-93
2021/03/02 11:24:04;;;;;;;12.07;10.87;;;16.40;78.50;;;;;;5043976;28;20637;-93
2021/03/02 11:26:38;;;;;;;13.37;12.07;;;16.40;77.60;;;;;;5045944;28;20666;-92
2021/03/02 11:29:08;;;;;;;14.37;12.97;;;16.70;78.20;;;;;;5054243;28;21164;-93
2021/03/02 11:31:34;;;;;;;13.67;12.33;;;17.20;74.70;;;;;;5046037;28;20640;-94
2021/03/02 11:34:04;;;;;;;13.60;12.40;;;17.00;74.70;;;;;;5035170;28;20622;-94
2021/03/02 11:36:31;;;;;;;12.53;11.30;;;17.10;74.60;;;;;;5058776;28;20668;-94
2021/03/02 11:38:59;;;;;;;14.10;12.40;;;17.50;71.80;;;;;;5058740;28;20709;-93
2021/03/02 11:41:27;;;;;;;13.07;11.87;;;17.60;70.50;;;;;;5055200;28;20632;-94
2021/03/02 11:43:55;;;;;;;15.73;13.10;;;17.60;69.20;;;;;;5049107;28;20634;-93
2021/03/02 11:46:22;;;;;;;13.53;12.23;;;18.10;68.90;;;;;;5038290;28;20630;-92
2021/03/02 11:48:48;;;;;;;13.40;11.70;;;18.50;67.20;;;;;;5047031;28;20637;-93
2021/03/02 11:51:18;;;;;;;12.90;11.67;;;18.70;64.60;;;;;;5057126;28;20638;-92
2021/03/02 11:53:44;;;;;;;15.13;13.37;;;18.60;64.80;;;;;;5056354;28;20632;-92
2021/03/02 11:56:11;;;;;;;15.00;13.33;;;18.30;65.60;;;;;;5053318;28;20617;-92
2021/03/02 11:58:37;;;;;;;15.17;12.63;;;18.60;65.50;;;;;;5052830;28;20664;-94
2021/03/02 12:01:06;;;;;;;14.27;12.97;;;18.70;64.10;;;;;;5036750;28;20669;-93
2021/03/02 12:03:33;;;;;;;14.57;13.07;;;19.40;62.70;;;;;;5042248;28;20669;-94
2021/03/02 12:05:59;;;;;;;14.60;13.17;;;19.80;61.60;;;;;;5067874;28;20692;-93
2021/03/02 12:08:27;;;;;;;15.10;12.97;;;19.80;60.60;;;;;;5046879;28;20634;-94
2021/03/02 12:10:57;;;;;;;14.80;13.30;;;20.20;59.70;;;;;;5056625;28;20651;-94
2021/03/02 12:13:24;;;;;;;16.00;13.60;;;20.10;58.60;;;;;;5048959;28;20652;-94
2021/03/02 12:15:55;;;;;;;13.80;12.50;;;20.00;59.20;;;;;;5057924;28;20642;-93
2021/03/02 12:18:25;;;;;;;13.30;12.10;;;20.30;57.90;;;;;;5054701;28;20641;-95
2021/03/02 12:20:56;;;;;;;13.30;12.10;;;20.40;57.80;;;;;;5049556;28;20760;-93
2021/03/02 12:23:25;;;;;;;16.17;13.10;;;20.40;57.20;;;;;;5049965;28;20693;-94
2021/03/02 12:25:54;;;;;;;17.77;12.60;;;19.80;56.50;;;;;;5059394;28;20772;-93
2021/03/02 12:28:23;;;;;;;15.13;13.60;;;19.60;57.60;;;;;;5040938;28;20698;-96
2021/03/02 12:36:20;;;;;;;13.93;12.70;;;20.80;57.00;;;;;;5060607;28;20606;-96
2021/03/02 12:38:50;;;;;;;16.23;14.20;;;21.00;56.50;;;;;;5074983;28;20624;-95
2021/03/02 12:41:18;;;;;;;14.57;13.30;;;21.00;55.60;;;;;;5054977;28;20661;-95
2021/03/02 12:46:32;;;;;;;16.27;14.77;;;21.60;56.00;;;;;;5063978;28;20626;-95
2021/03/02 12:49:04;;;;;;;15.63;14.17;;;21.60;54.60;;;;;;5068533;28;21455;-96
2021/03/02 12:51:31;;;;;;;15.30;14.10;;;21.80;55.30;;;;;;5057746;28;20625;-96
2021/03/02 12:53:59;;;;;;;15.97;14.43;;;21.40;54.60;;;;;;5072346;28;20638;-94
2021/03/02 12:56:34;;;;;;;14.40;13.10;;;21.60;55.00;;;;;;5068780;28;20609;-96
2021/03/02 12:59:19;;;;;;;15.20;13.90;;;22.40;54.70;;;;;;5038363;28;21052;-96